sensor_id;sensor_type;location;lat;lon;timestamp;temperature;humidity
38265;DHT22;24062;47.480;8.768;2022-08-21T00:02:28;16.80;82.10
38265;DHT22;24062;47.480;8.768;2022-08-21T00:04:55;16.70;82.00
38265;DHT22;24062;47.480;8.768;2022-08-21T00:07:22;16.60;81.90
38265;DHT22;24062;47.480;8.768;2022-08-21T00:09:49;16.60;81.90
38265;DHT22;24062;47.480;8.768;2022-08-21T00:12:17;16.60;82.00
38265;DHT22;24062;47.480;8.768;2022-08-21T00:14:44;16.50;82.10
38265;DHT22;24062;47.480;8.768;2022-08-21T00:17:11;16.50;82.10
38265;DHT22;24062;47.480;8.768;2022-08-21T00:19:38;16.50;82.20
38265;DHT22;24062;47.480;8.768;2022-08-21T00:22:04;16.50;82.30
38265;DHT22;24062;47.480;8.768;2022-08-21T00:24:31;16.40;82.20
38265;DHT22;24062;47.480;8.768;2022-08-21T00:26:58;16.40;82.30
38265;DHT22;24062;47.480;8.768;2022-08-21T00:29:27;16.40;82.40
38265;DHT22;24062;47.480;8.768;2022-08-21T00:31:53;16.30;82.40
38265;DHT22;24062;47.480;8.768;2022-08-21T00:34:20;16.30;82.30
38265;DHT22;24062;47.480;8.768;2022-08-21T00:36:47;16.20;82.30
38265;DHT22;24062;47.480;8.768;2022-08-21T00:39:14;16.20;82.40
38265;DHT22;24062;47.480;8.768;2022-08-21T00:41:42;16.20;82.40
38265;DHT22;24062;47.480;8.768;2022-08-21T00:44:11;16.20;82.50
38265;DHT22;24062;47.480;8.768;2022-08-21T00:46:42;16.20;82.70
38265;DHT22;24062;47.480;8.768;2022-08-21T00:49:11;16.20;82.80
38265;DHT22;24062;47.480;8.768;2022-08-21T00:51:43;16.20;82.70
38265;DHT22;24062;47.480;8.768;2022-08-21T00:54:13;16.20;82.80
38265;DHT22;24062;47.480;8.768;2022-08-21T00:56:41;16.20;82.90
38265;DHT22;24062;47.480;8.768;2022-08-21T00:59:08;16.20;83.00
38265;DHT22;24062;47.480;8.768;2022-08-21T01:01:35;16.20;83.20
38265;DHT22;24062;47.480;8.768;2022-08-21T01:04:04;16.30;83.30
38265;DHT22;24062;47.480;8.768;2022-08-21T01:06:31;16.20;83.20
38265;DHT22;24062;47.480;8.768;2022-08-21T01:08:58;16.30;83.40
38265;DHT22;24062;47.480;8.768;2022-08-21T01:11:25;16.40;83.40
38265;DHT22;24062;47.480;8.768;2022-08-21T01:13:52;16.40;83.40
38265;DHT22;24062;47.480;8.768;2022-08-21T01:16:21;16.40;83.40
38265;DHT22;24062;47.480;8.768;2022-08-21T01:18:49;16.40;83.50
38265;DHT22;24062;47.480;8.768;2022-08-21T01:21:19;16.40;83.60
38265;DHT22;24062;47.480;8.768;2022-08-21T01:23:50;16.50;83.80
38265;DHT22;24062;47.480;8.768;2022-08-21T01:26:26;16.50;83.80
38265;DHT22;24062;47.480;8.768;2022-08-21T01:28:57;16.60;84.00
38265;DHT22;24062;47.480;8.768;2022-08-21T01:31:27;16.60;83.80
38265;DHT22;24062;47.480;8.768;2022-08-21T01:33:55;16.60;83.60
38265;DHT22;24062;47.480;8.768;2022-08-21T01:36:24;16.50;83.50
38265;DHT22;24062;47.480;8.768;2022-08-21T01:38:51;16.40;83.30
38265;DHT22;24062;47.480;8.768;2022-08-21T01:41:18;16.30;83.40
38265;DHT22;24062;47.480;8.768;2022-08-21T01:43:46;16.30;83.70
38265;DHT22;24062;47.480;8.768;2022-08-21T01:46:13;16.20;83.80
38265;DHT22;24062;47.480;8.768;2022-08-21T01:48:41;16.20;83.90
38265;DHT22;24062;47.480;8.768;2022-08-21T01:51:08;16.10;83.70
38265;DHT22;24062;47.480;8.768;2022-08-21T01:53:37;16.10;84.00
38265;DHT22;24062;47.480;8.768;2022-08-21T01:56:06;16.00;84.10
38265;DHT22;24062;47.480;8.768;2022-08-21T01:58:33;16.00;84.20
38265;DHT22;24062;47.480;8.768;2022-08-21T02:01:00;15.90;84.30
38265;DHT22;24062;47.480;8.768;2022-08-21T02:03:27;15.90;84.30
38265;DHT22;24062;47.480;8.768;2022-08-21T02:05:54;15.80;84.30
38265;DHT22;24062;47.480;8.768;2022-08-21T02:08:21;15.80;84.60
38265;DHT22;24062;47.480;8.768;2022-08-21T02:10:51;15.80;84.60
38265;DHT22;24062;47.480;8.768;2022-08-21T02:13:18;15.70;84.50
38265;DHT22;24062;47.480;8.768;2022-08-21T02:15:45;15.80;84.70
38265;DHT22;24062;47.480;8.768;2022-08-21T02:18:12;15.70;84.60
38265;DHT22;24062;47.480;8.768;2022-08-21T02:20:41;15.70;84.60
38265;DHT22;24062;47.480;8.768;2022-08-21T02:23:09;15.70;84.60
38265;DHT22;24062;47.480;8.768;2022-08-21T02:25:37;15.70;84.70
38265;DHT22;24062;47.480;8.768;2022-08-21T02:28:08;15.70;84.80
38265;DHT22;24062;47.480;8.768;2022-08-21T02:30:39;15.60;84.80
38265;DHT22;24062;47.480;8.768;2022-08-21T02:33:07;15.60;84.70
38265;DHT22;24062;47.480;8.768;2022-08-21T02:35:35;15.60;84.80
38265;DHT22;24062;47.480;8.768;2022-08-21T02:38:05;15.60;84.90
38265;DHT22;24062;47.480;8.768;2022-08-21T02:40:36;15.60;85.10
38265;DHT22;24062;47.480;8.768;2022-08-21T02:43:06;15.50;85.00
38265;DHT22;24062;47.480;8.768;2022-08-21T02:45:35;15.50;85.10
38265;DHT22;24062;47.480;8.768;2022-08-21T02:48:04;15.50;85.00
38265;DHT22;24062;47.480;8.768;2022-08-21T02:50:33;15.50;85.00
38265;DHT22;24062;47.480;8.768;2022-08-21T02:53:01;15.50;85.10
38265;DHT22;24062;47.480;8.768;2022-08-21T02:55:30;15.40;85.10
38265;DHT22;24062;47.480;8.768;2022-08-21T02:57:58;15.40;85.30
38265;DHT22;24062;47.480;8.768;2022-08-21T03:00:29;15.40;85.30
38265;DHT22;24062;47.480;8.768;2022-08-21T03:02:56;15.40;85.30
38265;DHT22;24062;47.480;8.768;2022-08-21T03:05:24;15.30;85.10
38265;DHT22;24062;47.480;8.768;2022-08-21T03:07:51;15.30;85.10
38265;DHT22;24062;47.480;8.768;2022-08-21T03:10:20;15.30;85.10
38265;DHT22;24062;47.480;8.768;2022-08-21T03:12:48;15.30;85.30
38265;DHT22;24062;47.480;8.768;2022-08-21T03:15:17;15.30;85.30
38265;DHT22;24062;47.480;8.768;2022-08-21T03:17:46;15.30;85.30
38265;DHT22;24062;47.480;8.768;2022-08-21T03:20:16;15.20;85.20
38265;DHT22;24062;47.480;8.768;2022-08-21T03:22:43;15.20;85.20
38265;DHT22;24062;47.480;8.768;2022-08-21T03:25:10;15.10;85.10
38265;DHT22;24062;47.480;8.768;2022-08-21T03:27:37;15.10;85.30
38265;DHT22;24062;47.480;8.768;2022-08-21T03:30:06;15.10;85.50
38265;DHT22;24062;47.480;8.768;2022-08-21T03:32:33;15.10;85.60
38265;DHT22;24062;47.480;8.768;2022-08-21T03:35:03;15.00;85.60
38265;DHT22;24062;47.480;8.768;2022-08-21T03:37:30;15.00;85.60
38265;DHT22;24062;47.480;8.768;2022-08-21T03:39:57;15.00;85.50
38265;DHT22;24062;47.480;8.768;2022-08-21T03:42:24;15.00;85.50
38265;DHT22;24062;47.480;8.768;2022-08-21T03:44:51;14.90;85.40
38265;DHT22;24062;47.480;8.768;2022-08-21T03:47:18;14.90;85.50
38265;DHT22;24062;47.480;8.768;2022-08-21T03:49:45;14.90;85.50
38265;DHT22;24062;47.480;8.768;2022-08-21T03:52:13;14.90;85.70
38265;DHT22;24062;47.480;8.768;2022-08-21T03:54:41;14.90;85.80
38265;DHT22;24062;47.480;8.768;2022-08-21T03:57:08;15.00;86.00
38265;DHT22;24062;47.480;8.768;2022-08-21T03:59:36;15.10;86.20
38265;DHT22;24062;47.480;8.768;2022-08-21T04:02:06;15.10;86.20
38265;DHT22;24062;47.480;8.768;2022-08-21T04:04:33;15.20;86.20
38265;DHT22;24062;47.480;8.768;2022-08-21T04:07:00;15.20;86.00
38265;DHT22;24062;47.480;8.768;2022-08-21T04:09:28;15.20;85.80
38265;DHT22;24062;47.480;8.768;2022-08-21T04:11:56;15.10;85.60
38265;DHT22;24062;47.480;8.768;2022-08-21T04:14:23;15.10;85.70
38265;DHT22;24062;47.480;8.768;2022-08-21T04:16:50;15.10;85.90
38265;DHT22;24062;47.480;8.768;2022-08-21T04:19:17;15.10;86.20
38265;DHT22;24062;47.480;8.768;2022-08-21T04:21:44;15.20;86.50
38265;DHT22;24062;47.480;8.768;2022-08-21T04:24:10;15.30;86.80
38265;DHT22;24062;47.480;8.768;2022-08-21T04:26:39;15.40;86.90
38265;DHT22;24062;47.480;8.768;2022-08-21T04:29:06;15.50;87.00
38265;DHT22;24062;47.480;8.768;2022-08-21T04:31:33;15.70;87.10
38265;DHT22;24062;47.480;8.768;2022-08-21T04:34:00;15.80;87.10
38265;DHT22;24062;47.480;8.768;2022-08-21T04:36:27;16.00;87.20
38265;DHT22;24062;47.480;8.768;2022-08-21T04:38:54;16.00;87.10
38265;DHT22;24062;47.480;8.768;2022-08-21T04:41:21;16.10;87.00
38265;DHT22;24062;47.480;8.768;2022-08-21T04:43:49;16.10;86.90
38265;DHT22;24062;47.480;8.768;2022-08-21T04:46:16;16.20;86.90
38265;DHT22;24062;47.480;8.768;2022-08-21T04:48:44;16.20;86.90
38265;DHT22;24062;47.480;8.768;2022-08-21T04:51:14;16.20;86.90
38265;DHT22;24062;47.480;8.768;2022-08-21T04:53:45;16.30;87.30
38265;DHT22;24062;47.480;8.768;2022-08-21T04:56:18;16.30;87.50
38265;DHT22;24062;47.480;8.768;2022-08-21T04:58:45;16.50;87.80
38265;DHT22;24062;47.480;8.768;2022-08-21T05:01:17;16.60;87.80
38265;DHT22;24062;47.480;8.768;2022-08-21T05:03:46;16.60;87.80
38265;DHT22;24062;47.480;8.768;2022-08-21T05:06:15;16.70;87.70
38265;DHT22;24062;47.480;8.768;2022-08-21T05:08:45;16.80;87.80
38265;DHT22;24062;47.480;8.768;2022-08-21T05:11:14;16.80;87.90
38265;DHT22;24062;47.480;8.768;2022-08-21T05:13:41;16.90;88.20
38265;DHT22;24062;47.480;8.768;2022-08-21T05:16:08;16.90;88.40
38265;DHT22;24062;47.480;8.768;2022-08-21T05:18:36;17.10;88.70
38265;DHT22;24062;47.480;8.768;2022-08-21T05:21:04;17.20;88.80
38265;DHT22;24062;47.480;8.768;2022-08-21T05:23:31;17.30;88.80
38265;DHT22;24062;47.480;8.768;2022-08-21T05:25:58;17.40;88.90
38265;DHT22;24062;47.480;8.768;2022-08-21T05:28:25;17.50;88.90
38265;DHT22;24062;47.480;8.768;2022-08-21T05:30:52;17.60;88.90
38265;DHT22;24062;47.480;8.768;2022-08-21T05:33:19;17.70;88.80
38265;DHT22;24062;47.480;8.768;2022-08-21T05:35:49;17.70;88.60
38265;DHT22;24062;47.480;8.768;2022-08-21T05:38:16;17.80;88.80
38265;DHT22;24062;47.480;8.768;2022-08-21T05:40:43;17.80;88.90
38265;DHT22;24062;47.480;8.768;2022-08-21T05:43:10;17.90;89.10
38265;DHT22;24062;47.480;8.768;2022-08-21T05:45:37;17.80;88.90
38265;DHT22;24062;47.480;8.768;2022-08-21T05:48:08;17.90;89.20
38265;DHT22;24062;47.480;8.768;2022-08-21T05:50:35;17.90;89.30
38265;DHT22;24062;47.480;8.768;2022-08-21T05:53:04;17.90;89.50
38265;DHT22;24062;47.480;8.768;2022-08-21T05:55:31;18.00;89.70
38265;DHT22;24062;47.480;8.768;2022-08-21T05:57:58;18.10;90.00
38265;DHT22;24062;47.480;8.768;2022-08-21T06:00:25;18.30;90.10
38265;DHT22;24062;47.480;8.768;2022-08-21T06:02:52;18.40;90.10
38265;DHT22;24062;47.480;8.768;2022-08-21T06:05:19;18.60;90.30
38265;DHT22;24062;47.480;8.768;2022-08-21T06:07:46;18.70;90.20
38265;DHT22;24062;47.480;8.768;2022-08-21T06:10:14;18.80;90.20
38265;DHT22;24062;47.480;8.768;2022-08-21T06:12:41;18.90;90.30
38265;DHT22;24062;47.480;8.768;2022-08-21T06:15:08;19.00;90.30
38265;DHT22;24062;47.480;8.768;2022-08-21T06:17:35;19.10;90.20
38265;DHT22;24062;47.480;8.768;2022-08-21T06:20:03;19.20;90.40
38265;DHT22;24062;47.480;8.768;2022-08-21T06:22:30;19.40;90.50
38265;DHT22;24062;47.480;8.768;2022-08-21T06:24:57;19.60;90.60
38265;DHT22;24062;47.480;8.768;2022-08-21T06:27:25;19.80;90.50
38265;DHT22;24062;47.480;8.768;2022-08-21T06:29:52;19.90;90.30
38265;DHT22;24062;47.480;8.768;2022-08-21T06:32:19;20.10;90.40
38265;DHT22;24062;47.480;8.768;2022-08-21T06:34:46;20.30;90.50
38265;DHT22;24062;47.480;8.768;2022-08-21T06:37:13;20.40;90.50
38265;DHT22;24062;47.480;8.768;2022-08-21T06:39:40;20.60;90.70
38265;DHT22;24062;47.480;8.768;2022-08-21T06:42:13;20.70;90.30
38265;DHT22;24062;47.480;8.768;2022-08-21T06:44:41;20.80;90.20
38265;DHT22;24062;47.480;8.768;2022-08-21T06:47:08;20.80;89.60
38265;DHT22;24062;47.480;8.768;2022-08-21T06:49:35;20.60;89.30
38265;DHT22;24062;47.480;8.768;2022-08-21T06:52:02;20.50;89.30
38265;DHT22;24062;47.480;8.768;2022-08-21T06:54:29;20.30;89.20
38265;DHT22;24062;47.480;8.768;2022-08-21T06:56:56;20.10;89.20
38265;DHT22;24062;47.480;8.768;2022-08-21T06:59:23;20.10;90.10
38265;DHT22;24062;47.480;8.768;2022-08-21T07:01:52;20.50;90.70
38265;DHT22;24062;47.480;8.768;2022-08-21T07:04:18;20.90;90.70
38265;DHT22;24062;47.480;8.768;2022-08-21T07:06:46;21.10;90.20
38265;DHT22;24062;47.480;8.768;2022-08-21T07:09:13;21.20;90.10
38265;DHT22;24062;47.480;8.768;2022-08-21T07:11:40;21.20;89.60
38265;DHT22;24062;47.480;8.768;2022-08-21T07:14:07;21.20;89.40
38265;DHT22;24062;47.480;8.768;2022-08-21T07:16:34;21.30;90.00
38265;DHT22;24062;47.480;8.768;2022-08-21T07:19:03;21.60;90.30
38265;DHT22;24062;47.480;8.768;2022-08-21T07:21:30;21.80;90.00
38265;DHT22;24062;47.480;8.768;2022-08-21T07:23:56;21.90;89.50
38265;DHT22;24062;47.480;8.768;2022-08-21T07:26:23;21.90;88.80
38265;DHT22;24062;47.480;8.768;2022-08-21T07:28:51;21.70;88.00
38265;DHT22;24062;47.480;8.768;2022-08-21T07:31:20;21.50;87.70
38265;DHT22;24062;47.480;8.768;2022-08-21T07:33:48;21.30;88.30
38265;DHT22;24062;47.480;8.768;2022-08-21T07:36:17;21.30;88.20
38265;DHT22;24062;47.480;8.768;2022-08-21T07:38:44;21.30;88.40
38265;DHT22;24062;47.480;8.768;2022-08-21T07:41:15;21.40;88.70
38265;DHT22;24062;47.480;8.768;2022-08-21T07:43:42;21.60;89.30
38265;DHT22;24062;47.480;8.768;2022-08-21T07:46:09;21.70;89.00
38265;DHT22;24062;47.480;8.768;2022-08-21T07:48:37;21.90;88.80
38265;DHT22;24062;47.480;8.768;2022-08-21T07:51:07;22.10;88.80
38265;DHT22;24062;47.480;8.768;2022-08-21T07:53:36;22.20;88.50
38265;DHT22;24062;47.480;8.768;2022-08-21T07:56:04;22.20;87.80
38265;DHT22;24062;47.480;8.768;2022-08-21T07:58:31;22.20;88.00
38265;DHT22;24062;47.480;8.768;2022-08-21T08:00:58;22.30;88.00
38265;DHT22;24062;47.480;8.768;2022-08-21T08:03:25;22.60;88.70
38265;DHT22;24062;47.480;8.768;2022-08-21T08:05:52;22.90;88.50
38265;DHT22;24062;47.480;8.768;2022-08-21T08:08:19;23.20;88.50
38265;DHT22;24062;47.480;8.768;2022-08-21T08:10:47;23.50;88.40
38265;DHT22;24062;47.480;8.768;2022-08-21T08:13:15;23.70;87.40
38265;DHT22;24062;47.480;8.768;2022-08-21T08:15:42;23.80;86.90
38265;DHT22;24062;47.480;8.768;2022-08-21T08:18:09;23.90;86.70
38265;DHT22;24062;47.480;8.768;2022-08-21T08:20:36;23.90;86.30
38265;DHT22;24062;47.480;8.768;2022-08-21T08:23:03;23.80;85.70
38265;DHT22;24062;47.480;8.768;2022-08-21T08:25:30;23.70;84.70
38265;DHT22;24062;47.480;8.768;2022-08-21T08:27:58;23.50;84.80
38265;DHT22;24062;47.480;8.768;2022-08-21T08:30:25;23.40;84.10
38265;DHT22;24062;47.480;8.768;2022-08-21T08:32:52;23.40;84.50
38265;DHT22;24062;47.480;8.768;2022-08-21T08:35:19;23.50;84.90
38265;DHT22;24062;47.480;8.768;2022-08-21T08:37:46;23.60;84.70
38265;DHT22;24062;47.480;8.768;2022-08-21T08:40:14;23.70;84.50
38265;DHT22;24062;47.480;8.768;2022-08-21T08:42:44;23.60;82.60
38265;DHT22;24062;47.480;8.768;2022-08-21T08:45:17;23.40;83.30
38265;DHT22;24062;47.480;8.768;2022-08-21T08:47:47;23.50;83.50
38265;DHT22;24062;47.480;8.768;2022-08-21T08:50:18;23.60;83.70
38265;DHT22;24062;47.480;8.768;2022-08-21T08:52:49;23.60;82.60
38265;DHT22;24062;47.480;8.768;2022-08-21T08:55:21;23.50;82.60
38265;DHT22;24062;47.480;8.768;2022-08-21T08:57:51;23.60;82.90
38265;DHT22;24062;47.480;8.768;2022-08-21T09:00:21;23.60;82.40
38265;DHT22;24062;47.480;8.768;2022-08-21T09:02:51;23.70;82.70
38265;DHT22;24062;47.480;8.768;2022-08-21T09:05:25;23.70;82.40
38265;DHT22;24062;47.480;8.768;2022-08-21T09:08:11;23.90;82.30
38265;DHT22;24062;47.480;8.768;2022-08-21T09:10:48;24.00;82.20
38265;DHT22;24062;47.480;8.768;2022-08-21T09:13:21;24.10;82.00
38265;DHT22;24062;47.480;8.768;2022-08-21T09:15:56;24.20;82.40
38265;DHT22;24062;47.480;8.768;2022-08-21T09:18:36;24.20;80.70
38265;DHT22;24062;47.480;8.768;2022-08-21T09:21:12;24.40;81.70
38265;DHT22;24062;47.480;8.768;2022-08-21T09:23:49;24.40;81.00
38265;DHT22;24062;47.480;8.768;2022-08-21T09:26:23;24.30;81.30
38265;DHT22;24062;47.480;8.768;2022-08-21T09:28:53;24.40;80.50
38265;DHT22;24062;47.480;8.768;2022-08-21T09:31:28;24.20;79.40
38265;DHT22;24062;47.480;8.768;2022-08-21T09:34:00;24.00;79.60
38265;DHT22;24062;47.480;8.768;2022-08-21T09:36:35;24.00;80.00
38265;DHT22;24062;47.480;8.768;2022-08-21T09:39:04;24.10;80.00
38265;DHT22;24062;47.480;8.768;2022-08-21T09:41:32;24.20;80.10
38265;DHT22;24062;47.480;8.768;2022-08-21T09:44:01;24.40;80.00
38265;DHT22;24062;47.480;8.768;2022-08-21T09:46:29;24.50;79.90
38265;DHT22;24062;47.480;8.768;2022-08-21T09:48:59;24.60;78.90
38265;DHT22;24062;47.480;8.768;2022-08-21T09:51:28;24.70;79.30
38265;DHT22;24062;47.480;8.768;2022-08-21T09:54:00;24.80;78.20
38265;DHT22;24062;47.480;8.768;2022-08-21T09:56:38;24.80;78.00
38265;DHT22;24062;47.480;8.768;2022-08-21T09:59:30;25.00;78.60
38265;DHT22;24062;47.480;8.768;2022-08-21T10:02:01;25.20;77.50
38265;DHT22;24062;47.480;8.768;2022-08-21T10:04:32;25.30;77.30
38265;DHT22;24062;47.480;8.768;2022-08-21T10:07:09;25.10;74.00
38265;DHT22;24062;47.480;8.768;2022-08-21T10:09:37;25.10;74.50
38265;DHT22;24062;47.480;8.768;2022-08-21T10:12:13;25.40;75.80
38265;DHT22;24062;47.480;8.768;2022-08-21T10:14:50;25.70;75.30
38265;DHT22;24062;47.480;8.768;2022-08-21T10:17:26;26.00;75.00
38265;DHT22;24062;47.480;8.768;2022-08-21T10:20:02;26.20;74.20
38265;DHT22;24062;47.480;8.768;2022-08-21T10:22:36;26.40;73.50
38265;DHT22;24062;47.480;8.768;2022-08-21T10:25:12;26.40;72.50
38265;DHT22;24062;47.480;8.768;2022-08-21T10:27:50;26.60;73.60
38265;DHT22;24062;47.480;8.768;2022-08-21T10:30:30;26.70;72.10
38265;DHT22;24062;47.480;8.768;2022-08-21T10:33:24;26.70;71.10
38265;DHT22;24062;47.480;8.768;2022-08-21T10:36:02;26.60;70.40
38265;DHT22;24062;47.480;8.768;2022-08-21T10:39:00;26.40;69.60
38265;DHT22;24062;47.480;8.768;2022-08-21T10:41:42;26.40;69.90
38265;DHT22;24062;47.480;8.768;2022-08-21T10:44:19;26.50;69.90
38265;DHT22;24062;47.480;8.768;2022-08-21T10:46:53;26.60;69.50
38265;DHT22;24062;47.480;8.768;2022-08-21T10:49:29;26.90;69.80
38265;DHT22;24062;47.480;8.768;2022-08-21T10:52:16;27.20;68.90
38265;DHT22;24062;47.480;8.768;2022-08-21T10:54:50;27.40;68.70
38265;DHT22;24062;47.480;8.768;2022-08-21T10:57:24;27.40;68.30
38265;DHT22;24062;47.480;8.768;2022-08-21T10:59:57;27.30;68.00
38265;DHT22;24062;47.480;8.768;2022-08-21T11:02:30;27.30;68.20
38265;DHT22;24062;47.480;8.768;2022-08-21T11:05:09;27.30;67.50
38265;DHT22;24062;47.480;8.768;2022-08-21T11:07:45;27.10;67.20
38265;DHT22;24062;47.480;8.768;2022-08-21T11:10:18;26.90;66.90
38265;DHT22;24062;47.480;8.768;2022-08-21T11:12:48;26.80;66.90
38265;DHT22;24062;47.480;8.768;2022-08-21T11:15:26;26.60;66.70
38265;DHT22;24062;47.480;8.768;2022-08-21T11:18:01;26.60;67.00
38265;DHT22;24062;47.480;8.768;2022-08-21T11:20:38;26.70;67.20
38265;DHT22;24062;47.480;8.768;2022-08-21T11:23:11;26.80;67.70
38265;DHT22;24062;47.480;8.768;2022-08-21T11:25:45;27.00;67.00
38265;DHT22;24062;47.480;8.768;2022-08-21T11:28:16;27.20;67.20
38265;DHT22;24062;47.480;8.768;2022-08-21T11:30:51;27.50;67.20
38265;DHT22;24062;47.480;8.768;2022-08-21T11:33:31;27.80;66.60
38265;DHT22;24062;47.480;8.768;2022-08-21T11:36:12;27.90;65.90
38265;DHT22;24062;47.480;8.768;2022-08-21T11:38:44;28.20;65.70
38265;DHT22;24062;47.480;8.768;2022-08-21T11:41:20;28.20;65.00
38265;DHT22;24062;47.480;8.768;2022-08-21T11:43:51;28.20;64.50
38265;DHT22;24062;47.480;8.768;2022-08-21T11:46:27;28.30;64.40
38265;DHT22;24062;47.480;8.768;2022-08-21T11:49:06;28.70;64.40
38265;DHT22;24062;47.480;8.768;2022-08-21T11:51:42;29.00;64.40
38265;DHT22;24062;47.480;8.768;2022-08-21T11:54:19;29.40;62.60
38265;DHT22;24062;47.480;8.768;2022-08-21T11:56:53;29.40;61.50
38265;DHT22;24062;47.480;8.768;2022-08-21T11:59:23;29.50;61.60
38265;DHT22;24062;47.480;8.768;2022-08-21T12:01:53;29.50;60.50
38265;DHT22;24062;47.480;8.768;2022-08-21T12:04:26;29.40;60.10
38265;DHT22;24062;47.480;8.768;2022-08-21T12:06:56;29.50;60.20
38265;DHT22;24062;47.480;8.768;2022-08-21T12:09:33;29.60;59.30
38265;DHT22;24062;47.480;8.768;2022-08-21T12:12:05;29.90;59.50
38265;DHT22;24062;47.480;8.768;2022-08-21T12:14:39;30.20;58.90
38265;DHT22;24062;47.480;8.768;2022-08-21T12:17:09;30.40;58.90
38265;DHT22;24062;47.480;8.768;2022-08-21T12:19:43;30.50;58.00
38265;DHT22;24062;47.480;8.768;2022-08-21T12:22:13;30.60;58.00
38265;DHT22;24062;47.480;8.768;2022-08-21T12:24:42;30.80;57.70
38265;DHT22;24062;47.480;8.768;2022-08-21T12:27:20;31.20;57.40
38265;DHT22;24062;47.480;8.768;2022-08-21T12:29:52;31.50;56.40
38265;DHT22;24062;47.480;8.768;2022-08-21T12:32:24;32.00;56.40
38265;DHT22;24062;47.480;8.768;2022-08-21T12:34:55;32.50;56.50
38265;DHT22;24062;47.480;8.768;2022-08-21T12:37:31;32.80;56.70
38265;DHT22;24062;47.480;8.768;2022-08-21T12:40:03;33.20;56.40
38265;DHT22;24062;47.480;8.768;2022-08-21T12:42:34;33.80;56.70
38265;DHT22;24062;47.480;8.768;2022-08-21T12:45:09;34.40;56.80
38265;DHT22;24062;47.480;8.768;2022-08-21T12:47:48;35.10;54.70
38265;DHT22;24062;47.480;8.768;2022-08-21T12:50:20;35.80;53.90
38265;DHT22;24062;47.480;8.768;2022-08-21T12:52:55;36.90;53.10
38265;DHT22;24062;47.480;8.768;2022-08-21T12:55:29;38.20;52.50
38265;DHT22;24062;47.480;8.768;2022-08-21T12:57:56;39.50;48.70
38265;DHT22;24062;47.480;8.768;2022-08-21T13:00:28;39.60;42.50
38265;DHT22;24062;47.480;8.768;2022-08-21T13:02:56;39.80;41.50
38265;DHT22;24062;47.480;8.768;2022-08-21T13:05:29;41.50;42.90
38265;DHT22;24062;47.480;8.768;2022-08-21T13:08:02;43.70;43.20
38265;DHT22;24062;47.480;8.768;2022-08-21T13:10:31;45.00;40.70
38265;DHT22;24062;47.480;8.768;2022-08-21T13:13:03;45.70;38.60
38265;DHT22;24062;47.480;8.768;2022-08-21T13:15:32;47.10;38.50
38265;DHT22;24062;47.480;8.768;2022-08-21T13:18:01;48.00;34.80
38265;DHT22;24062;47.480;8.768;2022-08-21T13:20:30;48.30;33.80
38265;DHT22;24062;47.480;8.768;2022-08-21T13:23:00;48.70;34.10
38265;DHT22;24062;47.480;8.768;2022-08-21T13:25:29;50.10;34.00
38265;DHT22;24062;47.480;8.768;2022-08-21T13:27:59;51.30;33.60
38265;DHT22;24062;47.480;8.768;2022-08-21T13:30:26;52.00;32.90
38265;DHT22;24062;47.480;8.768;2022-08-21T13:32:56;52.80;32.40
38265;DHT22;24062;47.480;8.768;2022-08-21T13:35:26;53.50;32.10
38265;DHT22;24062;47.480;8.768;2022-08-21T13:37:54;54.10;31.10
38265;DHT22;24062;47.480;8.768;2022-08-21T13:40:25;54.00;30.10
38265;DHT22;24062;47.480;8.768;2022-08-21T13:42:52;54.50;30.40
38265;DHT22;24062;47.480;8.768;2022-08-21T13:45:25;55.00;29.70
38265;DHT22;24062;47.480;8.768;2022-08-21T13:47:53;55.10;29.40
38265;DHT22;24062;47.480;8.768;2022-08-21T13:50:23;54.80;28.80
38265;DHT22;24062;47.480;8.768;2022-08-21T13:53:03;54.50;28.10
38265;DHT22;24062;47.480;8.768;2022-08-21T13:55:37;53.90;27.60
38265;DHT22;24062;47.480;8.768;2022-08-21T13:58:05;53.50;28.10
38265;DHT22;24062;47.480;8.768;2022-08-21T14:00:34;53.80;27.50
38265;DHT22;24062;47.480;8.768;2022-08-21T14:03:07;53.40;27.40
38265;DHT22;24062;47.480;8.768;2022-08-21T14:05:36;53.70;27.50
38265;DHT22;24062;47.480;8.768;2022-08-21T14:08:07;54.40;27.70
38265;DHT22;24062;47.480;8.768;2022-08-21T14:10:42;54.60;26.90
38265;DHT22;24062;47.480;8.768;2022-08-21T14:13:28;54.30;27.00
38265;DHT22;24062;47.480;8.768;2022-08-21T14:15:58;54.00;26.50
38265;DHT22;24062;47.480;8.768;2022-08-21T14:18:25;53.90;26.80
38265;DHT22;24062;47.480;8.768;2022-08-21T14:21:03;54.30;27.20
38265;DHT22;24062;47.480;8.768;2022-08-21T14:23:31;55.10;27.20
38265;DHT22;24062;47.480;8.768;2022-08-21T14:26:01;52.80;25.60
38265;DHT22;24062;47.480;8.768;2022-08-21T14:28:31;48.70;25.60
38265;DHT22;24062;47.480;8.768;2022-08-21T14:30:59;45.60;26.10
38265;DHT22;24062;47.480;8.768;2022-08-21T14:33:37;46.50;28.40
38265;DHT22;24062;47.480;8.768;2022-08-21T14:36:05;49.70;28.80
38265;DHT22;24062;47.480;8.768;2022-08-21T14:38:32;52.20;28.60
38265;DHT22;24062;47.480;8.768;2022-08-21T14:41:08;53.90;27.90
38265;DHT22;24062;47.480;8.768;2022-08-21T14:43:37;54.20;26.80
38265;DHT22;24062;47.480;8.768;2022-08-21T14:46:04;54.40;26.90
38265;DHT22;24062;47.480;8.768;2022-08-21T14:48:31;54.60;26.90
38265;DHT22;24062;47.480;8.768;2022-08-21T14:50:58;54.90;26.90
38265;DHT22;24062;47.480;8.768;2022-08-21T14:53:25;54.90;26.30
38265;DHT22;24062;47.480;8.768;2022-08-21T14:55:52;55.00;26.60
38265;DHT22;24062;47.480;8.768;2022-08-21T14:58:37;55.00;25.80
38265;DHT22;24062;47.480;8.768;2022-08-21T15:01:05;55.20;26.30
38265;DHT22;24062;47.480;8.768;2022-08-21T15:03:32;54.80;25.30
38265;DHT22;24062;47.480;8.768;2022-08-21T15:06:00;54.70;25.80
38265;DHT22;24062;47.480;8.768;2022-08-21T15:08:27;55.40;26.10
38265;DHT22;24062;47.480;8.768;2022-08-21T15:10:54;56.00;25.90
38265;DHT22;24062;47.480;8.768;2022-08-21T15:13:22;56.30;25.70
38265;DHT22;24062;47.480;8.768;2022-08-21T15:15:51;56.40;25.50
38265;DHT22;24062;47.480;8.768;2022-08-21T15:18:18;56.60;25.80
38265;DHT22;24062;47.480;8.768;2022-08-21T15:20:45;57.00;25.60
38265;DHT22;24062;47.480;8.768;2022-08-21T15:23:12;57.30;25.80
38265;DHT22;24062;47.480;8.768;2022-08-21T15:25:41;57.20;25.40
38265;DHT22;24062;47.480;8.768;2022-08-21T15:28:09;57.10;25.50
38265;DHT22;24062;47.480;8.768;2022-08-21T15:30:37;57.20;25.50
38265;DHT22;24062;47.480;8.768;2022-08-21T15:33:07;57.20;25.60
38265;DHT22;24062;47.480;8.768;2022-08-21T15:35:34;57.30;25.50
38265;DHT22;24062;47.480;8.768;2022-08-21T15:38:01;57.10;25.40
38265;DHT22;24062;47.480;8.768;2022-08-21T15:40:28;56.90;25.40
38265;DHT22;24062;47.480;8.768;2022-08-21T15:42:58;56.00;25.40
38265;DHT22;24062;47.480;8.768;2022-08-21T15:45:27;55.90;25.50
38265;DHT22;24062;47.480;8.768;2022-08-21T15:47:55;55.60;25.50